createdAt,value
2017-08-01T00:00:28.757Z,26.30
2017-08-01T00:02:56.291Z,26.20
2017-08-01T00:05:23.836Z,26.10
2017-08-01T00:07:51.407Z,26.10
2017-08-01T00:10:18.937Z,26.10
2017-08-01T00:12:46.545Z,26.00
2017-08-01T00:15:14.091Z,26.00
2017-08-01T00:17:41.668Z,26.10
2017-08-01T00:20:09.213Z,26.00
2017-08-01T00:22:36.723Z,25.90
2017-08-01T00:25:05.027Z,25.80
2017-08-01T00:27:32.592Z,25.80
2017-08-01T00:30:00.127Z,25.80
2017-08-01T00:32:27.647Z,25.60
2017-08-01T00:34:55.197Z,25.60
2017-08-01T00:37:22.744Z,25.50
2017-08-01T00:39:50.327Z,25.50
2017-08-01T00:42:17.857Z,25.50
2017-08-01T00:44:45.443Z,25.40
2017-08-01T00:47:12.973Z,25.50
2017-08-01T00:49:40.519Z,25.50
2017-08-01T00:52:08.059Z,25.40
2017-08-01T00:54:35.590Z,25.40
2017-08-01T00:57:03.129Z,25.50
2017-08-01T00:59:30.702Z,25.40
2017-08-01T01:01:59.038Z,25.50
2017-08-01T01:04:26.646Z,25.50
2017-08-01T01:06:54.166Z,25.30
2017-08-01T01:09:21.705Z,25.30
2017-08-01T01:11:49.250Z,25.10
2017-08-01T01:14:16.786Z,25.20
2017-08-01T01:16:44.300Z,24.90
2017-08-01T01:19:11.830Z,24.90
2017-08-01T01:21:40.115Z,25.20
2017-08-01T01:24:07.695Z,25.20
2017-08-01T01:26:35.254Z,25.10
2017-08-01T01:29:02.821Z,25.10
2017-08-01T01:31:30.322Z,25.00
2017-08-01T01:33:57.845Z,25.00
2017-08-01T01:36:25.375Z,25.00
2017-08-01T01:38:52.910Z,25.00
2017-08-01T01:41:20.426Z,25.10
2017-08-01T01:43:47.994Z,25.10
2017-08-01T01:46:15.567Z,25.10
2017-08-01T01:48:43.119Z,25.10
2017-08-01T01:51:10.670Z,25.20
2017-08-01T01:53:38.214Z,25.10
2017-08-01T01:56:05.742Z,25.10
2017-08-01T01:58:34.041Z,25.20
2017-08-01T02:01:01.576Z,25.10
2017-08-01T02:03:29.909Z,25.40
2017-08-01T02:05:57.428Z,25.30
2017-08-01T02:08:24.970Z,25.20
2017-08-01T02:10:53.282Z,25.40
2017-08-01T02:13:20.851Z,25.40
2017-08-01T02:15:48.374Z,25.40
2017-08-01T02:18:15.893Z,25.30
2017-08-01T02:20:43.457Z,25.00
2017-08-01T02:23:10.962Z,24.90
2017-08-01T02:25:38.533Z,24.90
2017-08-01T02:28:06.043Z,24.90
2017-08-01T02:30:33.596Z,25.00
2017-08-01T02:33:01.151Z,25.10
2017-08-01T02:35:28.703Z,25.00
2017-08-01T02:37:56.230Z,24.90
2017-08-01T02:40:23.786Z,25.10
2017-08-01T02:42:51.347Z,25.20
2017-08-01T02:45:18.923Z,25.20
2017-08-01T02:47:46.432Z,25.20
2017-08-01T02:50:14.758Z,25.30
2017-08-01T02:52:42.313Z,25.20
2017-08-01T02:55:09.875Z,25.10
2017-08-01T02:57:37.433Z,25.10
2017-08-01T03:00:04.957Z,24.90
2017-08-01T03:02:33.270Z,24.80
2017-08-01T03:05:00.800Z,24.80
2017-08-01T03:07:28.349Z,24.90
2017-08-01T03:09:55.915Z,24.90
2017-08-01T03:12:24.262Z,24.60
2017-08-01T03:14:51.800Z,24.60
2017-08-01T03:17:19.351Z,24.60
2017-08-01T03:19:46.888Z,24.50
2017-08-01T03:22:15.192Z,24.10
2017-08-01T03:24:42.722Z,24.10
2017-08-01T03:27:10.262Z,24.20
2017-08-01T03:29:37.829Z,24.40
2017-08-01T03:32:06.126Z,24.50
2017-08-01T03:34:33.746Z,24.40
2017-08-01T03:37:01.282Z,24.50
2017-08-01T03:39:28.875Z,24.50
2017-08-01T03:41:56.401Z,24.50
2017-08-01T03:44:23.942Z,24.50
2017-08-01T03:46:51.470Z,24.50
2017-08-01T03:49:19.050Z,24.50
2017-08-01T03:51:46.610Z,24.60
2017-08-01T03:54:14.168Z,24.60
2017-08-01T03:56:41.741Z,24.60
2017-08-01T03:59:09.320Z,24.50
2017-08-01T04:01:36.845Z,24.30
2017-08-01T04:04:05.122Z,24.50
2017-08-01T04:06:32.682Z,24.50
2017-08-01T04:09:00.976Z,24.40
2017-08-01T04:11:28.522Z,24.30
2017-08-01T04:13:56.062Z,24.40
2017-08-01T04:16:23.611Z,24.40
2017-08-01T04:18:51.115Z,24.50
2017-08-01T04:21:18.679Z,24.50
2017-08-01T04:23:46.238Z,24.70
2017-08-01T04:26:13.769Z,24.70
2017-08-01T04:28:42.089Z,24.80
2017-08-01T04:31:09.649Z,24.70
2017-08-01T04:33:37.207Z,24.80
2017-08-01T04:36:04.746Z,24.70
2017-08-01T04:38:32.290Z,24.70
2017-08-01T04:41:00.598Z,24.50
2017-08-01T04:43:28.125Z,24.50
2017-08-01T04:45:56.394Z,24.80
2017-08-01T04:48:23.954Z,24.80
2017-08-01T04:50:52.231Z,25.10
2017-08-01T04:53:19.765Z,25.10
2017-08-01T04:55:47.289Z,25.20
2017-08-01T04:58:14.817Z,25.00
2017-08-01T05:00:43.098Z,25.20
2017-08-01T05:03:10.654Z,25.20
2017-08-01T05:05:38.945Z,25.40
2017-08-01T05:08:07.251Z,25.40
2017-08-01T05:10:34.790Z,25.40
2017-08-01T05:13:02.338Z,25.30
2017-08-01T05:15:30.644Z,25.30
2017-08-01T05:17:58.153Z,25.20
2017-08-01T05:20:25.748Z,25.20
2017-08-01T05:22:53.297Z,25.30
2017-08-01T05:25:20.856Z,25.20
2017-08-01T05:27:48.368Z,25.30
2017-08-01T05:30:15.933Z,25.30
2017-08-01T05:32:43.446Z,25.30
2017-08-01T05:35:11.006Z,25.40
2017-08-01T05:37:38.516Z,25.20
2017-08-01T05:40:06.043Z,25.30
2017-08-01T05:42:33.546Z,25.30
2017-08-01T05:45:01.102Z,25.30
2017-08-01T05:47:28.613Z,25.50
2017-08-01T05:49:56.166Z,25.40
2017-08-01T05:52:23.681Z,25.70
2017-08-01T05:54:51.328Z,25.80
2017-08-01T05:57:18.847Z,25.70
2017-08-01T05:59:46.359Z,25.60
2017-08-01T06:02:13.911Z,25.70
2017-08-01T06:04:41.442Z,25.70
2017-08-01T06:07:08.994Z,25.80
2017-08-01T06:09:36.503Z,26.10
2017-08-01T06:12:04.058Z,26.00
2017-08-01T06:14:31.595Z,26.00
2017-08-01T06:16:59.225Z,26.10
2017-08-01T06:19:26.748Z,26.40
2017-08-01T06:21:54.314Z,26.60
2017-08-01T06:24:21.834Z,26.20
2017-08-01T06:26:49.362Z,26.40
2017-08-01T06:29:16.897Z,26.40
2017-08-01T06:31:45.227Z,26.60
2017-08-01T06:34:12.856Z,26.50
2017-08-01T06:36:40.368Z,25.90
2017-08-01T06:39:07.893Z,26.20
2017-08-01T06:41:35.484Z,25.60
2017-08-01T06:44:03.038Z,25.90
2017-08-01T06:46:30.541Z,27.30
2017-08-01T06:48:58.108Z,28.90
2017-08-01T06:51:26.381Z,28.80
2017-08-01T06:53:54.688Z,28.70
2017-08-01T06:56:22.238Z,28.70
2017-08-01T06:58:49.858Z,29.10
2017-08-01T07:01:17.375Z,29.00
2017-08-01T07:03:44.911Z,29.30
2017-08-01T07:06:12.509Z,28.90
2017-08-01T07:08:40.061Z,28.60
2017-08-01T07:11:07.634Z,28.10
2017-08-01T07:13:35.227Z,27.90
2017-08-01T07:16:02.808Z,27.70
2017-08-01T07:18:30.345Z,27.90
2017-08-01T07:20:57.880Z,27.70
2017-08-01T07:23:25.418Z,28.00
2017-08-01T07:25:53.006Z,27.70
2017-08-01T07:28:20.517Z,27.70
2017-08-01T07:30:48.063Z,27.80
2017-08-01T07:33:16.389Z,27.40
2017-08-01T07:35:43.961Z,27.40
2017-08-01T07:38:11.538Z,27.80
2017-08-01T07:40:39.070Z,27.90
2017-08-01T07:43:06.594Z,27.80
2017-08-01T07:45:34.135Z,28.10
2017-08-01T07:48:02.445Z,27.70
2017-08-01T07:50:30.015Z,27.70
2017-08-01T07:52:57.574Z,27.50
2017-08-01T07:55:25.153Z,27.40
2017-08-01T07:57:52.715Z,27.50
2017-08-01T08:00:20.246Z,27.30
2017-08-01T08:02:47.774Z,27.40
2017-08-01T08:05:16.093Z,27.40
2017-08-01T08:07:43.631Z,27.40
2017-08-01T08:10:11.148Z,27.40
2017-08-01T08:12:38.698Z,27.60
2017-08-01T08:15:06.243Z,28.00
2017-08-01T08:17:33.776Z,28.30
2017-08-01T08:20:01.326Z,28.50
2017-08-01T08:22:28.849Z,28.40
2017-08-01T08:24:56.382Z,28.70
2017-08-01T08:27:24.943Z,28.60
2017-08-01T08:29:52.498Z,28.50
2017-08-01T08:32:20.026Z,28.70
2017-08-01T08:34:48.340Z,28.70
2017-08-01T08:37:15.959Z,28.60
2017-08-01T08:39:43.497Z,28.30
2017-08-01T08:42:11.078Z,28.20
2017-08-01T08:44:38.619Z,28.30
2017-08-01T08:47:06.137Z,28.50
2017-08-01T08:49:33.655Z,28.70
2017-08-01T08:52:01.254Z,28.70
2017-08-01T08:54:28.759Z,28.70
2017-08-01T08:56:56.398Z,28.80
2017-08-01T08:59:23.923Z,28.70
2017-08-01T09:01:51.502Z,28.20
2017-08-01T09:04:19.040Z,27.90
2017-08-01T09:06:47.422Z,27.80
2017-08-01T09:09:14.975Z,27.70
2017-08-01T09:11:42.582Z,27.60
2017-08-01T09:14:10.138Z,27.60
2017-08-01T09:16:37.677Z,27.80
2017-08-01T09:19:05.191Z,27.60
2017-08-01T09:21:32.794Z,27.50
2017-08-01T09:24:00.340Z,27.30
2017-08-01T09:26:27.904Z,27.60
2017-08-01T09:28:55.505Z,28.00
2017-08-01T09:31:23.031Z,28.30
2017-08-01T09:33:50.563Z,28.50
2017-08-01T09:36:18.880Z,28.50
2017-08-01T09:38:46.415Z,28.50
2017-08-01T09:41:14.724Z,27.80
2017-08-01T09:43:42.275Z,27.80
2017-08-01T09:46:09.798Z,27.40
2017-08-01T09:48:37.391Z,27.00
2017-08-01T09:51:04.925Z,27.40
2017-08-01T09:53:32.461Z,27.50
2017-08-01T09:55:59.980Z,27.90
2017-08-01T09:58:27.532Z,28.40
2017-08-01T10:00:55.090Z,28.30
2017-08-01T10:03:22.636Z,28.80
2017-08-01T10:05:50.189Z,29.00
2017-08-01T10:08:17.710Z,28.30
2017-08-01T10:10:45.283Z,28.10
2017-08-01T10:13:12.840Z,29.00
2017-08-01T10:15:40.401Z,29.90
2017-08-01T10:18:07.918Z,31.00
2017-08-01T10:20:35.463Z,32.90
2017-08-01T10:23:03.023Z,34.80
2017-08-01T10:25:30.581Z,36.10
2017-08-01T10:27:58.118Z,37.50
2017-08-01T10:30:26.476Z,36.70
2017-08-01T10:32:53.992Z,36.70
2017-08-01T10:35:21.570Z,36.20
2017-08-01T10:37:49.106Z,34.40
2017-08-01T10:40:16.638Z,34.00
2017-08-01T10:42:44.975Z,32.40
2017-08-01T10:45:12.474Z,32.30
2017-08-01T10:47:40.787Z,31.40
2017-08-01T10:50:08.311Z,31.30
2017-08-01T10:52:36.659Z,30.50
2017-08-01T10:55:04.403Z,30.50
2017-08-01T10:57:34.714Z,30.40
2017-08-01T11:00:17.634Z,30.60
2017-08-01T11:02:48.064Z,30.50
2017-08-01T11:05:17.707Z,29.70
2017-08-01T11:07:45.524Z,29.40
2017-08-01T11:10:13.999Z,29.60
2017-08-01T11:12:42.334Z,29.40
2017-08-01T11:15:09.875Z,29.30
2017-08-01T11:17:37.454Z,29.60
2017-08-01T11:20:05.074Z,29.40
2017-08-01T11:22:32.626Z,28.70
2017-08-01T11:25:00.145Z,28.70
2017-08-01T11:27:27.664Z,28.90
2017-08-01T11:29:55.198Z,28.30
2017-08-01T11:32:22.743Z,28.20
2017-08-01T11:34:51.056Z,28.70
2017-08-01T11:37:18.582Z,28.70
2017-08-01T11:39:46.900Z,28.70
2017-08-01T11:42:14.483Z,28.70
2017-08-01T11:44:42.011Z,28.90
2017-08-01T11:47:09.538Z,28.40
2017-08-01T11:49:37.095Z,28.40
2017-08-01T11:52:05.486Z,28.10
2017-08-01T11:54:33.032Z,27.70
2017-08-01T11:57:00.562Z,27.60
2017-08-01T11:59:28.192Z,27.80
2017-08-01T12:01:55.742Z,28.10
2017-08-01T12:04:23.311Z,27.80
2017-08-01T12:06:50.861Z,27.10
2017-08-01T12:09:18.398Z,27.30
2017-08-01T12:11:45.934Z,27.50
2017-08-01T12:14:13.487Z,27.20
2017-08-01T12:16:41.054Z,27.60
2017-08-01T12:19:08.566Z,27.60
2017-08-01T12:21:36.138Z,27.80
2017-08-01T12:24:03.648Z,28.10
2017-08-01T12:26:31.215Z,27.90
2017-08-01T12:28:59.562Z,27.80
2017-08-01T12:31:27.088Z,27.70
2017-08-01T12:33:54.614Z,27.90
2017-08-01T12:36:23.610Z,27.60
2017-08-01T12:38:51.881Z,27.70
2017-08-01T12:41:20.219Z,27.80
2017-08-01T12:43:47.859Z,27.80
2017-08-01T12:46:15.385Z,27.90
2017-08-01T12:48:43.671Z,28.50
2017-08-01T12:51:11.187Z,28.40
2017-08-01T12:53:38.815Z,28.40
2017-08-01T12:56:06.317Z,28.10
2017-08-01T12:58:33.834Z,27.70
2017-08-01T13:01:01.373Z,27.70
2017-08-01T13:03:28.935Z,27.80
2017-08-01T13:05:56.472Z,28.30
2017-08-01T13:08:24.005Z,28.60
2017-08-01T13:10:51.585Z,28.80
2017-08-01T13:13:19.971Z,28.90
2017-08-01T13:15:47.492Z,28.90
2017-08-01T13:18:14.994Z,29.00
2017-08-01T13:20:43.313Z,29.10
2017-08-01T13:23:10.849Z,29.10
2017-08-01T13:25:38.434Z,29.10
2017-08-01T13:28:05.959Z,29.20
2017-08-01T13:30:34.263Z,28.50
2017-08-01T13:33:01.800Z,28.50
2017-08-01T13:35:29.350Z,28.60
2017-08-01T13:37:56.918Z,28.80
2017-08-01T13:40:25.232Z,28.90
2017-08-01T13:42:52.760Z,28.90
2017-08-01T13:45:20.325Z,28.60
2017-08-01T13:47:47.905Z,28.80
2017-08-01T13:50:15.450Z,28.80
2017-08-01T13:52:42.971Z,28.80
2017-08-01T13:55:10.560Z,28.90
2017-08-01T13:57:38.116Z,29.10
2017-08-01T14:00:06.435Z,28.80
2017-08-01T14:02:33.971Z,28.80
2017-08-01T14:05:01.518Z,28.40
2017-08-01T14:07:29.836Z,28.70
2017-08-01T14:09:57.346Z,28.60
2017-08-01T14:12:25.650Z,28.80
2017-08-01T14:14:53.261Z,28.70
2017-08-01T14:17:20.839Z,28.80
2017-08-01T14:19:48.358Z,28.70
2017-08-01T14:22:15.893Z,28.60
2017-08-01T14:24:43.450Z,28.50
2017-08-01T14:27:11.032Z,28.40
2017-08-01T14:29:38.547Z,28.40
2017-08-01T14:32:06.850Z,27.90
2017-08-01T14:34:34.370Z,27.90
2017-08-01T14:37:01.926Z,27.80
2017-08-01T14:39:31.791Z,28.00
2017-08-01T14:41:59.341Z,28.50
2017-08-01T14:44:26.877Z,28.70
2017-08-01T14:46:55.147Z,28.90
2017-08-01T14:49:23.478Z,28.90
2017-08-01T14:51:50.990Z,28.90
2017-08-01T14:54:19.307Z,29.30
2017-08-01T14:56:46.863Z,29.30
2017-08-01T14:59:14.405Z,29.30
2017-08-01T15:01:41.926Z,29.10
2017-08-01T15:04:09.464Z,29.00
2017-08-01T15:06:36.985Z,29.20
2017-08-01T15:09:04.542Z,29.30
2017-08-01T15:11:32.075Z,29.40
2017-08-01T15:13:59.664Z,29.50
2017-08-01T15:16:27.158Z,29.30
2017-08-01T15:18:54.910Z,29.20
2017-08-01T15:21:31.570Z,29.00
2017-08-01T15:23:59.145Z,29.00
2017-08-01T15:26:26.649Z,29.10
2017-08-01T15:28:54.188Z,29.20
2017-08-01T15:31:21.712Z,29.20
2017-08-01T15:33:49.265Z,29.00
2017-08-01T15:36:16.792Z,29.00
2017-08-01T15:38:44.354Z,29.00
2017-08-01T15:41:11.902Z,29.00
2017-08-01T15:43:39.415Z,29.30
2017-08-01T15:46:06.942Z,29.50
2017-08-01T15:48:35.219Z,29.60
2017-08-01T15:51:03.546Z,29.60
2017-08-01T15:53:31.062Z,29.60
2017-08-01T15:55:58.621Z,29.60
2017-08-01T15:58:26.180Z,29.50
2017-08-01T16:00:54.487Z,29.30
2017-08-01T16:03:21.997Z,29.30
2017-08-01T16:05:49.633Z,29.20
2017-08-01T16:08:17.203Z,29.40
2017-08-01T16:10:44.745Z,29.50
2017-08-01T16:13:12.274Z,29.60
2017-08-01T16:15:39.773Z,29.80
2017-08-01T16:18:08.112Z,29.90
2017-08-01T16:20:35.646Z,29.50
2017-08-01T16:23:03.209Z,29.70
2017-08-01T16:25:30.740Z,29.90
2017-08-01T16:27:58.371Z,30.00
2017-08-01T16:30:25.963Z,30.00
2017-08-01T16:32:53.483Z,30.20
2017-08-01T16:35:21.035Z,30.10
2017-08-01T16:37:48.639Z,30.10
2017-08-01T16:40:16.951Z,29.90
2017-08-01T16:42:45.263Z,29.90
2017-08-01T16:45:12.843Z,29.80
2017-08-01T16:47:40.642Z,29.70
2017-08-01T16:50:08.150Z,29.60
2017-08-01T16:52:35.753Z,29.30
2017-08-01T16:55:03.270Z,29.40
2017-08-01T16:57:30.772Z,29.30
2017-08-01T16:59:58.338Z,29.20
2017-08-01T17:02:25.865Z,29.20
2017-08-01T17:04:53.421Z,29.20
2017-08-01T17:07:20.980Z,29.20
2017-08-01T17:09:48.510Z,28.90
2017-08-01T17:12:16.048Z,28.90
2017-08-01T17:14:44.374Z,29.00
2017-08-01T17:17:11.949Z,29.00
2017-08-01T17:19:39.501Z,28.80
2017-08-01T17:22:07.038Z,28.90
2017-08-01T17:24:34.650Z,28.90
2017-08-01T17:27:02.942Z,28.60
2017-08-01T17:29:30.510Z,28.60
2017-08-01T17:31:58.786Z,28.80
2017-08-01T17:34:27.144Z,28.80
2017-08-01T17:36:55.454Z,28.80
2017-08-01T17:39:23.006Z,28.80
2017-08-01T17:41:50.542Z,28.80
2017-08-01T17:44:18.168Z,28.80
2017-08-01T17:46:45.695Z,28.70
2017-08-01T17:49:13.290Z,28.70
2017-08-01T17:51:40.810Z,28.50
2017-08-01T17:54:08.366Z,28.60
2017-08-01T17:56:35.930Z,28.70
2017-08-01T17:59:03.454Z,28.60
2017-08-01T18:01:30.993Z,28.70
2017-08-01T18:03:58.545Z,28.60
2017-08-01T18:06:26.152Z,28.50
2017-08-01T18:08:53.685Z,28.50
2017-08-01T18:11:21.264Z,28.40
2017-08-01T18:13:48.762Z,28.30
2017-08-01T18:16:16.311Z,28.30
2017-08-01T18:18:43.855Z,28.20
2017-08-01T18:21:11.420Z,28.20
2017-08-01T18:23:38.951Z,28.10
2017-08-01T18:26:06.461Z,28.10
2017-08-01T18:28:34.032Z,28.00
2017-08-01T18:31:01.638Z,27.90
2017-08-01T18:33:29.191Z,27.80
2017-08-01T18:35:56.710Z,27.80
2017-08-01T18:38:24.280Z,27.70
2017-08-01T18:40:51.811Z,27.70
2017-08-01T18:43:19.376Z,27.50
2017-08-01T18:45:46.955Z,27.60
2017-08-01T18:48:14.542Z,27.40
2017-08-01T18:50:42.883Z,27.40
2017-08-01T18:53:10.402Z,27.40
2017-08-01T18:55:37.942Z,27.40
2017-08-01T18:58:05.467Z,27.40
2017-08-01T19:00:33.014Z,27.30
2017-08-01T19:03:00.578Z,27.30
2017-08-01T19:05:28.077Z,27.30
2017-08-01T19:07:55.575Z,27.30
2017-08-01T19:10:23.112Z,27.40
2017-08-01T19:12:50.614Z,27.30
2017-08-01T19:15:18.158Z,27.30
2017-08-01T19:17:45.708Z,27.30
2017-08-01T19:20:13.278Z,27.20
2017-08-01T19:22:40.830Z,27.10
2017-08-01T19:25:08.390Z,27.20
2017-08-01T19:27:35.927Z,27.10
2017-08-01T19:30:03.484Z,27.00
2017-08-01T19:32:31.010Z,27.00
2017-08-01T19:34:58.574Z,26.90
2017-08-01T19:37:26.100Z,26.90
2017-08-01T19:39:53.624Z,26.80
2017-08-01T19:42:21.154Z,26.80
2017-08-01T19:44:48.678Z,26.80
2017-08-01T19:47:16.269Z,26.90
2017-08-01T19:49:43.774Z,27.00
2017-08-01T19:52:11.313Z,26.90
2017-08-01T19:54:38.829Z,26.90
2017-08-01T19:57:06.382Z,26.90
2017-08-01T19:59:33.886Z,27.00
2017-08-01T20:02:01.456Z,26.90
2017-08-01T20:04:28.962Z,27.00
2017-08-01T20:06:56.518Z,26.80
2017-08-01T20:09:24.069Z,26.80
2017-08-01T20:11:51.646Z,26.80
2017-08-01T20:14:19.214Z,26.70
2017-08-01T20:16:46.760Z,26.80
2017-08-01T20:19:14.318Z,26.80
2017-08-01T20:21:41.877Z,26.80
2017-08-01T20:24:09.472Z,26.70
2017-08-01T20:26:37.047Z,26.70
2017-08-01T20:29:04.600Z,26.60
2017-08-01T20:31:32.113Z,26.60
2017-08-01T20:33:59.640Z,26.60
2017-08-01T20:36:27.150Z,26.60
2017-08-01T20:38:54.691Z,26.40
2017-08-01T20:41:22.222Z,26.40
2017-08-01T20:43:49.786Z,26.40
2017-08-01T20:46:17.367Z,26.30
2017-08-01T20:48:44.883Z,26.20
2017-08-01T20:51:12.465Z,26.20
2017-08-01T20:53:40.007Z,26.20
2017-08-01T20:56:07.580Z,26.30
2017-08-01T20:58:35.101Z,26.10
2017-08-01T21:01:02.653Z,26.10
2017-08-01T21:03:30.218Z,26.00
2017-08-01T21:05:57.738Z,25.90
2017-08-01T21:08:25.302Z,25.90
2017-08-01T21:10:53.610Z,25.90
2017-08-01T21:13:21.174Z,25.90
2017-08-01T21:15:48.767Z,25.90
2017-08-01T21:18:16.303Z,25.70
2017-08-01T21:20:43.850Z,25.70
2017-08-01T21:23:11.387Z,25.60
2017-08-01T21:25:38.895Z,25.50
2017-08-01T21:28:06.440Z,25.40
2017-08-01T21:30:34.008Z,25.30
2017-08-01T21:33:01.533Z,25.30
2017-08-01T21:35:29.074Z,25.20
2017-08-01T21:37:57.390Z,25.20
2017-08-01T21:40:24.909Z,25.20
2017-08-01T21:42:53.210Z,25.10
2017-08-01T21:45:20.747Z,25.00
2017-08-01T21:47:49.094Z,24.90
2017-08-01T21:50:16.617Z,24.80
2017-08-01T21:52:44.170Z,24.80
2017-08-01T21:55:11.745Z,24.90
2017-08-01T21:57:39.294Z,24.80
2017-08-01T22:00:06.864Z,24.80
2017-08-01T22:02:34.394Z,24.70
2017-08-01T22:05:02.699Z,24.50
2017-08-01T22:07:30.271Z,24.50
2017-08-01T22:09:57.822Z,24.60
2017-08-01T22:12:25.369Z,24.60
2017-08-01T22:14:52.975Z,24.60
2017-08-01T22:17:20.499Z,24.50
2017-08-01T22:19:48.047Z,24.30
2017-08-01T22:22:15.564Z,24.00
2017-08-01T22:24:43.128Z,23.90
2017-08-01T22:27:10.650Z,23.80
2017-08-01T22:29:38.236Z,23.90
2017-08-01T22:32:05.814Z,24.00
2017-08-01T22:34:33.374Z,24.10
2017-08-01T22:37:00.910Z,24.30
2017-08-01T22:39:29.285Z,24.30
2017-08-01T22:41:56.846Z,24.20
2017-08-01T22:44:24.382Z,24.40
2017-08-01T22:46:51.940Z,24.30
2017-08-01T22:49:19.482Z,24.30
2017-08-01T22:51:47.026Z,24.30
2017-08-01T22:54:15.302Z,24.20
2017-08-01T22:56:43.633Z,24.20
2017-08-01T22:59:11.145Z,24.20
2017-08-01T23:01:39.460Z,24.20
2017-08-01T23:04:06.970Z,24.20
2017-08-01T23:06:34.542Z,24.10
2017-08-01T23:09:02.855Z,24.00
2017-08-01T23:11:30.484Z,24.00
2017-08-01T23:13:58.112Z,23.90
2017-08-01T23:16:25.658Z,23.90
2017-08-01T23:18:53.242Z,23.80
2017-08-01T23:21:20.762Z,23.70
2017-08-01T23:23:48.356Z,23.70
2017-08-01T23:26:16.677Z,23.60
2017-08-01T23:28:44.274Z,23.60
2017-08-01T23:31:11.801Z,23.60
2017-08-01T23:33:39.361Z,23.60
2017-08-01T23:36:06.914Z,23.60
2017-08-01T23:38:34.483Z,23.60
2017-08-01T23:41:02.810Z,23.60
2017-08-01T23:43:30.316Z,23.50
2017-08-01T23:45:57.870Z,23.60
2017-08-01T23:48:25.414Z,23.40
2017-08-01T23:50:52.998Z,23.50
2017-08-01T23:53:20.566Z,23.50
2017-08-01T23:55:48.097Z,23.40
2017-08-01T23:58:16.407Z,23.30
